TimeMST,TemperatureF,Dew PointF,Humidity,Sea Level PressureIn,VisibilityMPH,Wind Direction,Wind SpeedMPH,Gust SpeedMPH,PrecipitationIn,Events,Conditions,WindDirDegrees,DateUTC
12:53 AM,28.0,12.9,53,29.74,10.0,SSW,13.8,-,N/A,,Clear,210,2012-12-12 07:53:00
1:53 AM,27.0,12.0,53,29.74,10.0,SSW,10.4,-,N/A,,Clear,210,2012-12-12 08:53:00
2:53 AM,25.0,12.0,58,29.75,10.0,SSW,9.2,-,N/A,,Clear,210,2012-12-12 09:53:00
3:53 AM,21.9,10.9,63,29.76,10.0,SSW,9.2,-,N/A,,Clear,200,2012-12-12 10:53:00
4:53 AM,26.1,12.0,55,29.80,10.0,South,9.2,-,N/A,,Clear,190,2012-12-12 11:53:00
5:53 AM,28.0,12.9,53,29.79,10.0,SSW,9.2,-,N/A,,Overcast,210,2012-12-12 12:53:00
6:53 AM,26.1,12.0,55,29.79,10.0,South,3.5,-,N/A,,Clear,180,2012-12-12 13:53:00
7:53 AM,28.0,14.0,56,29.80,10.0,WSW,4.6,-,N/A,,Partly Cloudy,240,2012-12-12 14:53:00
8:53 AM,39.9,16.0,38,29.78,10.0,SE,3.5,-,N/A,,Clear,130,2012-12-12 15:53:00
9:53 AM,44.1,14.0,30,29.78,10.0,South,6.9,-,N/A,,Clear,190,2012-12-12 16:53:00
10:53 AM,48.9,14.0,25,29.74,10.0,SW,8.1,-,N/A,,Clear,220,2012-12-12 17:53:00
11:53 AM,55.9,12.9,18,29.70,10.0,SW,16.1,-,N/A,,Clear,220,2012-12-12 18:53:00
12:53 PM,55.9,12.0,18,29.68,10.0,SW,11.5,-,N/A,,Clear,220,2012-12-12 19:53:00
1:53 PM,55.9,12.0,18,29.69,10.0,SW,11.5,-,N/A,,Clear,220,2012-12-12 20:53:00
2:53 PM,54.0,12.0,19,29.70,10.0,West,3.5,-,N/A,,Clear,270,2012-12-12 21:53:00
3:53 PM,53.1,12.0,20,29.73,10.0,Calm,Calm,-,N/A,,Clear,0,2012-12-12 22:53:00
4:53 PM,43.0,10.9,27,29.77,10.0,WNW,11.5,20.7,N/A,,Clear,300,2012-12-12 23:53:00
5:53 PM,41.0,14.0,33,29.81,10.0,NW,8.1,-,N/A,,Clear,310,2012-12-13 00:53:00
6:53 PM,37.9,14.0,38,29.85,10.0,WNW,3.5,-,N/A,,Clear,290,2012-12-13 01:53:00
7:53 PM,30.0,12.0,47,29.88,10.0,Calm,Calm,-,N/A,,Clear,0,2012-12-13 02:53:00
8:53 PM,28.0,10.9,49,29.87,10.0,SSW,5.8,-,N/A,,Clear,210,2012-12-13 03:53:00
9:53 PM,23.0,10.0,58,29.89,10.0,South,6.9,-,N/A,,Clear,190,2012-12-13 04:53:00
10:53 PM,26.1,12.9,58,29.89,10.0,SW,9.2,-,N/A,,Clear,220,2012-12-13 05:53:00
11:53 PM,30.9,16.0,54,29.87,10.0,WSW,15.0,-,N/A,,Clear,240,2012-12-13 06:53:00